sensor_id;sensor_type;location;lat;lon;timestamp;pressure;altitude;pressure_sealevel;temperature;humidity
44148;BME280;29810;55.848;37.368;2023-04-26T00:01:01;97928.22;;;10.33;100.00
44148;BME280;29810;55.848;37.368;2023-04-26T00:04:05;97929.66;;;10.38;99.70
44148;BME280;29810;55.848;37.368;2023-04-26T00:07:08;97929.34;;;10.28;100.00
44148;BME280;29810;55.848;37.368;2023-04-26T00:10:09;97930.50;;;10.23;100.00
44148;BME280;29810;55.848;37.368;2023-04-26T00:13:10;97926.78;;;10.27;100.00
44148;BME280;29810;55.848;37.368;2023-04-26T00:16:12;97924.47;;;10.22;100.00
44148;BME280;29810;55.848;37.368;2023-04-26T00:19:14;97919.59;;;10.16;100.00
44148;BME280;29810;55.848;37.368;2023-04-26T00:22:16;97921.59;;;10.11;100.00
44148;BME280;29810;55.848;37.368;2023-04-26T00:25:17;97912.28;;;10.07;100.00
44148;BME280;29810;55.848;37.368;2023-04-26T00:28:18;97906.06;;;10.09;100.00
44148;BME280;29810;55.848;37.368;2023-04-26T00:31:19;97907.47;;;10.15;100.00
44148;BME280;29810;55.848;37.368;2023-04-26T00:34:21;97908.00;;;10.06;100.00
44148;BME280;29810;55.848;37.368;2023-04-26T00:37:24;97903.38;;;10.11;100.00
44148;BME280;29810;55.848;37.368;2023-04-26T00:40:25;97904.56;;;10.05;100.00
44148;BME280;29810;55.848;37.368;2023-04-26T00:43:27;97890.88;;;10.02;100.00
44148;BME280;29810;55.848;37.368;2023-04-26T00:46:28;97887.16;;;10.06;100.00
44148;BME280;29810;55.848;37.368;2023-04-26T00:49:30;97890.47;;;9.93;100.00
44148;BME280;29810;55.848;37.368;2023-04-26T00:52:32;97882.97;;;9.87;100.00
44148;BME280;29810;55.848;37.368;2023-04-26T00:55:33;97882.66;;;9.93;100.00
44148;BME280;29810;55.848;37.368;2023-04-26T00:58:35;97884.41;;;9.93;100.00
44148;BME280;29810;55.848;37.368;2023-04-26T01:01:36;97883.66;;;9.91;100.00
44148;BME280;29810;55.848;37.368;2023-04-26T01:04:39;97864.75;;;9.87;100.00
44148;BME280;29810;55.848;37.368;2023-04-26T01:07:41;97868.56;;;9.82;100.00
44148;BME280;29810;55.848;37.368;2023-04-26T01:10:43;97868.66;;;9.80;100.00
44148;BME280;29810;55.848;37.368;2023-04-26T01:13:44;97869.56;;;9.79;100.00
44148;BME280;29810;55.848;37.368;2023-04-26T01:16:46;97867.03;;;9.61;100.00
44148;BME280;29810;55.848;37.368;2023-04-26T01:19:48;97849.91;;;9.57;100.00
44148;BME280;29810;55.848;37.368;2023-04-26T01:22:50;97849.41;;;9.51;100.00
44148;BME280;29810;55.848;37.368;2023-04-26T01:25:52;97854.97;;;9.60;100.00
44148;BME280;29810;55.848;37.368;2023-04-26T01:28:55;97848.03;;;9.43;100.00
44148;BME280;29810;55.848;37.368;2023-04-26T01:31:56;97847.22;;;9.43;100.00
44148;BME280;29810;55.848;37.368;2023-04-26T01:35:02;97833.28;;;9.44;100.00
44148;BME280;29810;55.848;37.368;2023-04-26T01:38:03;97837.13;;;9.37;100.00
44148;BME280;29810;55.848;37.368;2023-04-26T01:41:04;97830.09;;;9.39;100.00
44148;BME280;29810;55.848;37.368;2023-04-26T01:44:06;97826.41;;;9.43;100.00
44148;BME280;29810;55.848;37.368;2023-04-26T01:47:07;97818.00;;;9.38;100.00
44148;BME280;29810;55.848;37.368;2023-04-26T01:50:08;97820.94;;;9.32;100.00
44148;BME280;29810;55.848;37.368;2023-04-26T01:53:10;97817.50;;;9.31;100.00
44148;BME280;29810;55.848;37.368;2023-04-26T01:56:12;97803.59;;;9.32;100.00
44148;BME280;29810;55.848;37.368;2023-04-26T01:59:13;97815.91;;;9.28;100.00
44148;BME280;29810;55.848;37.368;2023-04-26T02:02:15;97808.47;;;9.38;100.00
44148;BME280;29810;55.848;37.368;2023-04-26T02:05:17;97804.00;;;9.24;100.00
44148;BME280;29810;55.848;37.368;2023-04-26T02:08:18;97806.28;;;9.31;100.00
44148;BME280;29810;55.848;37.368;2023-04-26T02:11:19;97802.06;;;9.28;100.00
44148;BME280;29810;55.848;37.368;2023-04-26T02:14:21;97802.72;;;9.32;100.00
44148;BME280;29810;55.848;37.368;2023-04-26T02:17:24;97789.13;;;9.26;100.00
44148;BME280;29810;55.848;37.368;2023-04-26T02:20:26;97793.19;;;9.16;100.00
44148;BME280;29810;55.848;37.368;2023-04-26T02:23:28;97781.25;;;9.12;100.00
44148;BME280;29810;55.848;37.368;2023-04-26T02:26:29;97783.94;;;9.26;100.00
44148;BME280;29810;55.848;37.368;2023-04-26T02:29:34;97785.28;;;9.34;100.00
44148;BME280;29810;55.848;37.368;2023-04-26T02:32:36;97783.09;;;9.26;100.00
44148;BME280;29810;55.848;37.368;2023-04-26T02:35:38;97775.19;;;9.43;100.00
44148;BME280;29810;55.848;37.368;2023-04-26T02:38:39;97775.47;;;9.39;100.00
44148;BME280;29810;55.848;37.368;2023-04-26T02:41:42;97771.47;;;9.33;100.00
44148;BME280;29810;55.848;37.368;2023-04-26T02:44:44;97762.72;;;9.34;100.00
44148;BME280;29810;55.848;37.368;2023-04-26T02:47:45;97770.19;;;9.40;100.00
44148;BME280;29810;55.848;37.368;2023-04-26T02:50:46;97774.38;;;9.27;100.00
44148;BME280;29810;55.848;37.368;2023-04-26T02:53:48;97754.59;;;9.24;100.00
44148;BME280;29810;55.848;37.368;2023-04-26T02:56:49;97751.22;;;9.22;100.00
44148;BME280;29810;55.848;37.368;2023-04-26T02:59:51;97755.19;;;9.30;100.00
44148;BME280;29810;55.848;37.368;2023-04-26T03:02:52;97756.09;;;9.28;100.00
44148;BME280;29810;55.848;37.368;2023-04-26T03:05:53;97758.09;;;9.23;100.00
44148;BME280;29810;55.848;37.368;2023-04-26T03:08:54;97746.88;;;9.23;100.00
44148;BME280;29810;55.848;37.368;2023-04-26T03:11:57;97746.03;;;9.22;100.00
44148;BME280;29810;55.848;37.368;2023-04-26T03:14:58;97746.88;;;9.23;100.00
44148;BME280;29810;55.848;37.368;2023-04-26T03:18:00;97736.38;;;9.24;100.00
44148;BME280;29810;55.848;37.368;2023-04-26T03:21:01;97748.97;;;9.16;100.00
44148;BME280;29810;55.848;37.368;2023-04-26T03:24:04;97734.12;;;9.18;100.00
44148;BME280;29810;55.848;37.368;2023-04-26T03:27:05;97739.06;;;9.23;100.00
44148;BME280;29810;55.848;37.368;2023-04-26T03:30:07;97731.41;;;9.20;100.00
44148;BME280;29810;55.848;37.368;2023-04-26T03:33:09;97723.81;;;9.17;100.00
44148;BME280;29810;55.848;37.368;2023-04-26T03:36:10;97732.78;;;9.11;100.00
44148;BME280;29810;55.848;37.368;2023-04-26T03:39:12;97732.84;;;9.09;100.00
44148;BME280;29810;55.848;37.368;2023-04-26T03:42:14;97726.50;;;9.15;100.00
44148;BME280;29810;55.848;37.368;2023-04-26T03:45:15;97724.38;;;9.22;100.00
44148;BME280;29810;55.848;37.368;2023-04-26T03:48:16;97720.78;;;9.24;100.00
44148;BME280;29810;55.848;37.368;2023-04-26T03:51:18;97716.25;;;9.28;100.00
44148;BME280;29810;55.848;37.368;2023-04-26T03:54:20;97719.88;;;9.25;100.00
44148;BME280;29810;55.848;37.368;2023-04-26T03:57:22;97715.16;;;9.32;100.00
44148;BME280;29810;55.848;37.368;2023-04-26T04:00:24;97709.69;;;9.21;100.00
44148;BME280;29810;55.848;37.368;2023-04-26T04:03:26;97701.56;;;9.27;100.00
44148;BME280;29810;55.848;37.368;2023-04-26T04:06:27;97704.50;;;9.21;100.00
44148;BME280;29810;55.848;37.368;2023-04-26T04:09:28;97700.91;;;9.23;100.00
44148;BME280;29810;55.848;37.368;2023-04-26T04:12:29;97704.34;;;9.24;100.00
44148;BME280;29810;55.848;37.368;2023-04-26T04:15:32;97710.62;;;9.36;100.00
44148;BME280;29810;55.848;37.368;2023-04-26T04:18:33;97698.53;;;9.35;100.00
44148;BME280;29810;55.848;37.368;2023-04-26T04:21:35;97704.41;;;9.22;100.00
44148;BME280;29810;55.848;37.368;2023-04-26T04:24:37;97699.97;;;9.24;100.00
44148;BME280;29810;55.848;37.368;2023-04-26T04:27:39;97690.87;;;9.32;100.00
44148;BME280;29810;55.848;37.368;2023-04-26T04:30:42;97692.84;;;9.28;100.00
44148;BME280;29810;55.848;37.368;2023-04-26T04:33:44;97694.34;;;9.32;100.00
44148;BME280;29810;55.848;37.368;2023-04-26T04:36:47;97694.78;;;9.24;100.00
44148;BME280;29810;55.848;37.368;2023-04-26T04:39:49;97690.87;;;9.32;100.00
44148;BME280;29810;55.848;37.368;2023-04-26T04:42:50;97689.97;;;9.33;100.00
44148;BME280;29810;55.848;37.368;2023-04-26T04:45:54;97695.09;;;9.34;100.00
44148;BME280;29810;55.848;37.368;2023-04-26T04:48:55;97695.91;;;9.51;100.00
44148;BME280;29810;55.848;37.368;2023-04-26T04:51:57;97693.41;;;9.49;100.00
44148;BME280;29810;55.848;37.368;2023-04-26T04:54:59;97697.50;;;9.53;100.00
44148;BME280;29810;55.848;37.368;2023-04-26T04:58:02;97702.03;;;9.50;100.00
44148;BME280;29810;55.848;37.368;2023-04-26T05:01:07;97692.47;;;9.50;100.00
44148;BME280;29810;55.848;37.368;2023-04-26T05:04:09;97701.28;;;9.48;100.00
44148;BME280;29810;55.848;37.368;2023-04-26T05:07:11;97690.22;;;9.44;100.00
44148;BME280;29810;55.848;37.368;2023-04-26T05:10:15;97695.66;;;9.55;100.00
44148;BME280;29810;55.848;37.368;2023-04-26T05:13:17;97708.72;;;9.54;100.00
44148;BME280;29810;55.848;37.368;2023-04-26T05:16:18;97699.19;;;9.54;100.00
44148;BME280;29810;55.848;37.368;2023-04-26T05:19:19;97693.13;;;9.54;100.00
44148;BME280;29810;55.848;37.368;2023-04-26T05:22:21;97689.50;;;9.56;100.00
44148;BME280;29810;55.848;37.368;2023-04-26T05:25:22;97690.84;;;9.64;100.00
44148;BME280;29810;55.848;37.368;2023-04-26T05:28:24;97691.31;;;9.70;100.00
44148;BME280;29810;55.848;37.368;2023-04-26T05:31:25;97696.63;;;9.69;100.00
44148;BME280;29810;55.848;37.368;2023-04-26T05:34:27;97690.31;;;9.73;100.00
44148;BME280;29810;55.848;37.368;2023-04-26T05:37:28;97690.59;;;9.83;100.00
44148;BME280;29810;55.848;37.368;2023-04-26T05:40:30;97702.41;;;9.74;100.00
44148;BME280;29810;55.848;37.368;2023-04-26T05:43:32;97696.97;;;9.63;100.00
44148;BME280;29810;55.848;37.368;2023-04-26T05:46:34;97690.94;;;9.62;100.00
44148;BME280;29810;55.848;37.368;2023-04-26T05:49:36;97698.56;;;9.65;100.00
44148;BME280;29810;55.848;37.368;2023-04-26T05:52:38;97696.16;;;9.62;100.00
44148;BME280;29810;55.848;37.368;2023-04-26T05:55:42;97663.00;;;9.50;100.00
44148;BME280;29810;55.848;37.368;2023-04-26T05:58:44;97703.31;;;9.73;100.00
44148;BME280;29810;55.848;37.368;2023-04-26T06:01:45;97702.22;;;9.77;100.00
44148;BME280;29810;55.848;37.368;2023-04-26T06:04:47;97702.09;;;9.94;100.00
44148;BME280;29810;55.848;37.368;2023-04-26T06:07:50;97689.94;;;9.65;100.00
44148;BME280;29810;55.848;37.368;2023-04-26T06:10:52;97699.94;;;9.87;100.00
44148;BME280;29810;55.848;37.368;2023-04-26T06:13:53;97697.16;;;10.04;100.00
44148;BME280;29810;55.848;37.368;2023-04-26T06:16:54;97707.72;;;10.17;100.00
44148;BME280;29810;55.848;37.368;2023-04-26T06:19:56;97696.78;;;9.96;100.00
44148;BME280;29810;55.848;37.368;2023-04-26T06:22:57;97696.69;;;9.98;100.00
44148;BME280;29810;55.848;37.368;2023-04-26T06:25:59;97702.62;;;10.00;100.00
44148;BME280;29810;55.848;37.368;2023-04-26T06:29:01;97706.34;;;10.26;100.00
44148;BME280;29810;55.848;37.368;2023-04-26T06:32:02;97700.88;;;10.45;100.00
44148;BME280;29810;55.848;37.368;2023-04-26T06:35:04;97703.84;;;10.39;100.00
44148;BME280;29810;55.848;37.368;2023-04-26T06:38:05;97699.78;;;10.19;100.00
44148;BME280;29810;55.848;37.368;2023-04-26T06:41:07;97704.41;;;10.44;100.00
44148;BME280;29810;55.848;37.368;2023-04-26T06:44:09;97704.97;;;10.49;100.00
44148;BME280;29810;55.848;37.368;2023-04-26T06:47:15;97709.09;;;10.53;100.00
44148;BME280;29810;55.848;37.368;2023-04-26T06:50:17;97700.69;;;10.48;100.00
44148;BME280;29810;55.848;37.368;2023-04-26T06:53:18;97704.88;;;10.80;100.00
44148;BME280;29810;55.848;37.368;2023-04-26T06:56:19;97717.62;;;10.70;100.00
44148;BME280;29810;55.848;37.368;2023-04-26T06:59:21;97708.50;;;10.63;100.00
44148;BME280;29810;55.848;37.368;2023-04-26T07:02:22;97708.88;;;10.71;100.00
44148;BME280;29810;55.848;37.368;2023-04-26T07:05:24;97714.00;;;10.72;100.00
44148;BME280;29810;55.848;37.368;2023-04-26T07:08:25;97713.53;;;10.66;100.00
44148;BME280;29810;55.848;37.368;2023-04-26T07:11:27;97718.75;;;10.66;100.00
44148;BME280;29810;55.848;37.368;2023-04-26T07:14:28;97722.25;;;10.79;100.00
44148;BME280;29810;55.848;37.368;2023-04-26T07:17:29;97716.31;;;10.77;100.00
44148;BME280;29810;55.848;37.368;2023-04-26T07:20:30;97714.97;;;10.99;100.00
44148;BME280;29810;55.848;37.368;2023-04-26T07:23:32;97720.59;;;10.92;100.00
44148;BME280;29810;55.848;37.368;2023-04-26T07:26:33;97719.81;;;11.05;100.00
44148;BME280;29810;55.848;37.368;2023-04-26T07:29:35;97725.81;;;10.92;100.00
44148;BME280;29810;55.848;37.368;2023-04-26T07:32:36;97719.66;;;10.65;100.00
44148;BME280;29810;55.848;37.368;2023-04-26T07:35:37;97730.37;;;10.74;100.00
44148;BME280;29810;55.848;37.368;2023-04-26T07:38:39;97730.84;;;10.81;100.00
44148;BME280;29810;55.848;37.368;2023-04-26T07:41:40;97741.72;;;10.88;100.00
44148;BME280;29810;55.848;37.368;2023-04-26T07:44:42;97737.16;;;10.91;100.00
44148;BME280;29810;55.848;37.368;2023-04-26T07:47:43;97743.19;;;11.06;100.00
44148;BME280;29810;55.848;37.368;2023-04-26T07:50:44;97741.59;;;11.04;100.00
44148;BME280;29810;55.848;37.368;2023-04-26T07:53:46;97735.06;;;11.25;100.00
44148;BME280;29810;55.848;37.368;2023-04-26T07:56:47;97735.41;;;11.34;100.00
44148;BME280;29810;55.848;37.368;2023-04-26T07:59:48;97733.03;;;11.16;100.00
44148;BME280;29810;55.848;37.368;2023-04-26T08:02:50;97737.13;;;11.20;100.00
44148;BME280;29810;55.848;37.368;2023-04-26T08:05:51;97744.78;;;11.09;100.00
44148;BME280;29810;55.848;37.368;2023-04-26T08:08:53;97741.44;;;11.07;100.00
44148;BME280;29810;55.848;37.368;2023-04-26T08:11:55;97751.84;;;11.21;100.00
44148;BME280;29810;55.848;37.368;2023-04-26T08:14:56;97744.50;;;11.14;100.00
44148;BME280;29810;55.848;37.368;2023-04-26T08:17:57;97742.88;;;11.25;100.00
44148;BME280;29810;55.848;37.368;2023-04-26T08:20:59;97745.63;;;11.37;100.00
44148;BME280;29810;55.848;37.368;2023-04-26T08:24:00;97757.44;;;11.15;100.00
44148;BME280;29810;55.848;37.368;2023-04-26T08:27:01;97750.75;;;11.11;100.00
44148;BME280;29810;55.848;37.368;2023-04-26T08:30:03;97762.38;;;11.47;100.00
44148;BME280;29810;55.848;37.368;2023-04-26T08:33:05;97765.59;;;11.23;100.00
44148;BME280;29810;55.848;37.368;2023-04-26T08:36:07;97759.84;;;11.18;100.00
44148;BME280;29810;55.848;37.368;2023-04-26T08:39:08;97762.00;;;11.53;100.00
44148;BME280;29810;55.848;37.368;2023-04-26T08:42:15;97759.38;;;11.53;100.00
44148;BME280;29810;55.848;37.368;2023-04-26T08:45:16;97757.56;;;11.41;100.00
44148;BME280;29810;55.848;37.368;2023-04-26T08:48:18;97763.84;;;11.51;100.00
44148;BME280;29810;55.848;37.368;2023-04-26T08:51:19;97757.66;;;11.67;100.00
44148;BME280;29810;55.848;37.368;2023-04-26T08:54:21;97758.63;;;11.66;100.00
44148;BME280;29810;55.848;37.368;2023-04-26T08:57:23;97759.72;;;11.62;100.00
44148;BME280;29810;55.848;37.368;2023-04-26T09:00:25;97763.13;;;11.76;100.00
44148;BME280;29810;55.848;37.368;2023-04-26T09:03:27;97766.97;;;11.43;100.00
44148;BME280;29810;55.848;37.368;2023-04-26T09:06:29;97766.59;;;11.35;100.00
44148;BME280;29810;55.848;37.368;2023-04-26T09:09:33;97769.88;;;11.39;100.00
44148;BME280;29810;55.848;37.368;2023-04-26T09:12:38;97766.53;;;11.22;100.00
44148;BME280;29810;55.848;37.368;2023-04-26T09:15:39;97775.13;;;11.24;100.00
44148;BME280;29810;55.848;37.368;2023-04-26T09:18:50;97774.97;;;11.40;100.00
44148;BME280;29810;55.848;37.368;2023-04-26T09:21:57;97775.81;;;11.55;100.00
44148;BME280;29810;55.848;37.368;2023-04-26T09:24:59;97782.78;;;11.82;100.00
44148;BME280;29810;55.848;37.368;2023-04-26T09:28:00;97786.69;;;12.17;100.00
44148;BME280;29810;55.848;37.368;2023-04-26T09:31:02;97781.56;;;12.41;100.00
44148;BME280;29810;55.848;37.368;2023-04-26T09:34:03;97771.97;;;12.54;100.00
44148;BME280;29810;55.848;37.368;2023-04-26T09:37:05;97770.38;;;12.90;100.00
44148;BME280;29810;55.848;37.368;2023-04-26T09:40:18;97773.38;;;13.23;100.00
44148;BME280;29810;55.848;37.368;2023-04-26T09:43:22;97771.53;;;13.49;100.00
44148;BME280;29810;55.848;37.368;2023-04-26T09:46:23;97767.87;;;12.89;100.00
44148;BME280;29810;55.848;37.368;2023-04-26T09:49:25;97764.75;;;12.84;100.00
44148;BME280;29810;55.848;37.368;2023-04-26T09:52:27;97770.09;;;12.82;100.00
44148;BME280;29810;55.848;37.368;2023-04-26T09:55:29;97772.38;;;13.00;100.00
44148;BME280;29810;55.848;37.368;2023-04-26T09:58:31;97778.06;;;13.31;100.00
44148;BME280;29810;55.848;37.368;2023-04-26T10:01:33;97786.41;;;13.73;100.00
44148;BME280;29810;55.848;37.368;2023-04-26T10:04:34;97783.84;;;14.08;100.00
44148;BME280;29810;55.848;37.368;2023-04-26T10:07:36;97779.19;;;14.48;100.00
44148;BME280;29810;55.848;37.368;2023-04-26T10:10:38;97786.53;;;14.78;100.00
44148;BME280;29810;55.848;37.368;2023-04-26T10:13:39;97778.31;;;14.83;100.00
44148;BME280;29810;55.848;37.368;2023-04-26T10:16:44;97780.22;;;15.15;100.00
44148;BME280;29810;55.848;37.368;2023-04-26T10:19:47;97786.53;;;15.01;100.00
44148;BME280;29810;55.848;37.368;2023-04-26T10:22:50;97783.09;;;14.89;100.00
44148;BME280;29810;55.848;37.368;2023-04-26T10:25:52;97796.53;;;14.84;100.00
44148;BME280;29810;55.848;37.368;2023-04-26T10:28:54;97794.16;;;14.81;100.00
44148;BME280;29810;55.848;37.368;2023-04-26T10:35:11;97798.97;;;14.05;92.40
44148;BME280;29810;55.848;37.368;2023-04-26T10:38:13;97803.28;;;14.17;96.26
44148;BME280;29810;55.848;37.368;2023-04-26T10:41:35;97812.84;;;13.94;81.97
44148;BME280;29810;55.848;37.368;2023-04-26T10:44:38;97823.91;;;13.49;81.93
44148;BME280;29810;55.848;37.368;2023-04-26T10:47:40;97814.97;;;13.65;88.62
44148;BME280;29810;55.848;37.368;2023-04-26T10:54:13;97815.09;;;14.58;88.95
44148;BME280;29810;55.848;37.368;2023-04-26T10:57:14;97813.75;;;14.88;82.58
44148;BME280;29810;55.848;37.368;2023-04-26T11:00:16;97817.91;;;15.48;88.35
44148;BME280;29810;55.848;37.368;2023-04-26T11:03:20;97819.16;;;15.76;82.46
44148;BME280;29810;55.848;37.368;2023-04-26T11:06:23;97818.84;;;16.02;81.54
44148;BME280;29810;55.848;37.368;2023-04-26T11:09:36;97820.56;;;16.45;87.07
44148;BME280;29810;55.848;37.368;2023-04-26T11:12:40;97817.50;;;16.61;85.08
44148;BME280;29810;55.848;37.368;2023-04-26T11:15:41;97809.97;;;16.78;88.26
44148;BME280;29810;55.848;37.368;2023-04-26T11:18:43;97812.81;;;17.07;89.95
44148;BME280;29810;55.848;37.368;2023-04-26T11:21:45;97810.75;;;17.51;91.73
44148;BME280;29810;55.848;37.368;2023-04-26T11:24:46;97812.28;;;17.54;82.02
44148;BME280;29810;55.848;37.368;2023-04-26T11:27:48;97816.44;;;17.66;84.59
44148;BME280;29810;55.848;37.368;2023-04-26T11:30:49;97823.63;;;17.14;72.00
44148;BME280;29810;55.848;37.368;2023-04-26T11:33:50;97831.84;;;17.20;74.72
44148;BME280;29810;55.848;37.368;2023-04-26T11:36:52;97838.16;;;16.66;66.98
44148;BME280;29810;55.848;37.368;2023-04-26T11:39:53;97837.13;;;16.36;71.58
44148;BME280;29810;55.848;37.368;2023-04-26T11:42:58;97853.56;;;16.49;67.68
44148;BME280;29810;55.848;37.368;2023-04-26T11:46:00;97856.91;;;16.51;71.95
44148;BME280;29810;55.848;37.368;2023-04-26T11:49:01;97848.69;;;16.12;71.29
44148;BME280;29810;55.848;37.368;2023-04-26T11:52:03;97865.53;;;16.10;79.74
44148;BME280;29810;55.848;37.368;2023-04-26T11:55:06;97862.53;;;15.59;71.18
44148;BME280;29810;55.848;37.368;2023-04-26T11:58:08;97884.00;;;14.61;73.74
44148;BME280;29810;55.848;37.368;2023-04-26T12:01:10;97885.22;;;14.08;77.66
44148;BME280;29810;55.848;37.368;2023-04-26T12:04:12;97873.03;;;13.83;79.82
44148;BME280;29810;55.848;37.368;2023-04-26T12:07:17;97864.56;;;13.79;76.83
44148;BME280;29810;55.848;37.368;2023-04-26T12:10:20;97867.81;;;14.07;78.24
44148;BME280;29810;55.848;37.368;2023-04-26T12:13:22;97863.16;;;14.35;76.17
44148;BME280;29810;55.848;37.368;2023-04-26T12:16:25;97865.88;;;14.57;71.62
44148;BME280;29810;55.848;37.368;2023-04-26T12:19:26;97875.19;;;14.62;76.38
44148;BME280;29810;55.848;37.368;2023-04-26T12:22:28;97869.50;;;14.68;76.45
44148;BME280;29810;55.848;37.368;2023-04-26T12:25:32;97872.13;;;14.79;71.92
44148;BME280;29810;55.848;37.368;2023-04-26T12:28:35;97869.03;;;14.74;73.93
44148;BME280;29810;55.848;37.368;2023-04-26T12:31:37;97877.13;;;14.71;74.26
44148;BME280;29810;55.848;37.368;2023-04-26T12:34:39;97870.28;;;14.93;75.28
44148;BME280;29810;55.848;37.368;2023-04-26T12:37:40;97865.53;;;15.20;70.43
44148;BME280;29810;55.848;37.368;2023-04-26T12:40:42;97876.16;;;15.53;70.75
44148;BME280;29810;55.848;37.368;2023-04-26T12:43:43;97873.06;;;15.25;67.86
44148;BME280;29810;55.848;37.368;2023-04-26T12:46:45;97879.91;;;14.92;69.86
44148;BME280;29810;55.848;37.368;2023-04-26T12:49:46;97879.94;;;14.56;69.55
44148;BME280;29810;55.848;37.368;2023-04-26T12:52:48;97877.75;;;14.74;69.84
44148;BME280;29810;55.848;37.368;2023-04-26T12:55:49;97874.06;;;14.77;69.53
44148;BME280;29810;55.848;37.368;2023-04-26T12:58:51;97889.59;;;14.92;70.78
44148;BME280;29810;55.848;37.368;2023-04-26T13:01:52;97880.06;;;15.13;70.62
44148;BME280;29810;55.848;37.368;2023-04-26T13:04:54;97870.44;;;15.25;69.94
44148;BME280;29810;55.848;37.368;2023-04-26T13:07:55;97884.84;;;15.87;72.18
44148;BME280;29810;55.848;37.368;2023-04-26T13:10:58;97877.94;;;16.51;68.66
44148;BME280;29810;55.848;37.368;2023-04-26T13:13:59;97878.03;;;16.82;64.81
44148;BME280;29810;55.848;37.368;2023-04-26T13:17:02;97890.47;;;16.27;59.36
44148;BME280;29810;55.848;37.368;2023-04-26T13:20:04;97888.41;;;15.86;62.90
44148;BME280;29810;55.848;37.368;2023-04-26T13:23:07;97892.59;;;15.89;61.57
44148;BME280;29810;55.848;37.368;2023-04-26T13:26:09;97886.97;;;16.05;62.52
44148;BME280;29810;55.848;37.368;2023-04-26T13:29:10;97879.78;;;16.39;64.27
44148;BME280;29810;55.848;37.368;2023-04-26T13:32:12;97877.75;;;16.85;68.61
44148;BME280;29810;55.848;37.368;2023-04-26T13:35:13;97881.59;;;16.93;66.18
44148;BME280;29810;55.848;37.368;2023-04-26T13:38:14;97874.75;;;17.11;67.41
44148;BME280;29810;55.848;37.368;2023-04-26T13:41:16;97874.94;;;17.50;73.66
44148;BME280;29810;55.848;37.368;2023-04-26T13:44:17;97889.13;;;18.00;69.09
44148;BME280;29810;55.848;37.368;2023-04-26T13:47:20;97882.69;;;17.93;61.71
44148;BME280;29810;55.848;37.368;2023-04-26T13:50:21;97885.62;;;17.99;58.82
44148;BME280;29810;55.848;37.368;2023-04-26T13:53:22;97888.06;;;17.81;60.16
44148;BME280;29810;55.848;37.368;2023-04-26T13:56:23;97895.13;;;17.71;64.88
44148;BME280;29810;55.848;37.368;2023-04-26T13:59:25;97903.81;;;17.62;67.25
44148;BME280;29810;55.848;37.368;2023-04-26T14:02:26;97895.41;;;17.37;58.38
44148;BME280;29810;55.848;37.368;2023-04-26T14:05:28;97898.03;;;17.37;64.36
44148;BME280;29810;55.848;37.368;2023-04-26T14:08:30;97903.47;;;17.45;60.96
44148;BME280;29810;55.848;37.368;2023-04-26T14:11:32;97903.56;;;17.65;63.75
44148;BME280;29810;55.848;37.368;2023-04-26T14:14:34;97910.88;;;17.61;63.26
44148;BME280;29810;55.848;37.368;2023-04-26T14:17:36;97910.13;;;17.40;53.62
44148;BME280;29810;55.848;37.368;2023-04-26T14:20:37;97918.16;;;17.17;56.08
44148;BME280;29810;55.848;37.368;2023-04-26T14:23:39;97906.72;;;17.28;58.47
44148;BME280;29810;55.848;37.368;2023-04-26T14:26:40;97922.19;;;17.21;54.91
44148;BME280;29810;55.848;37.368;2023-04-26T14:29:42;97914.28;;;17.21;54.84
44148;BME280;29810;55.848;37.368;2023-04-26T14:32:43;97916.03;;;17.32;54.34
44148;BME280;29810;55.848;37.368;2023-04-26T14:35:45;97930.50;;;17.16;50.39
44148;BME280;29810;55.848;37.368;2023-04-26T14:38:58;97933.13;;;17.16;53.31
44148;BME280;29810;55.848;37.368;2023-04-26T14:42:00;97928.63;;;17.28;54.93
44148;BME280;29810;55.848;37.368;2023-04-26T14:45:03;97926.38;;;17.24;54.10
44148;BME280;29810;55.848;37.368;2023-04-26T14:48:05;97931.00;;;17.10;54.09
44148;BME280;29810;55.848;37.368;2023-04-26T14:51:06;97930.84;;;17.02;51.74
44148;BME280;29810;55.848;37.368;2023-04-26T14:54:08;97937.59;;;16.83;51.72
44148;BME280;29810;55.848;37.368;2023-04-26T14:57:09;97940.47;;;16.80;50.41
44148;BME280;29810;55.848;37.368;2023-04-26T15:00:11;97935.00;;;16.72;51.45
44148;BME280;29810;55.848;37.368;2023-04-26T15:03:15;97950.06;;;16.49;51.11
44148;BME280;29810;55.848;37.368;2023-04-26T15:06:17;97938.72;;;16.48;52.67
44148;BME280;29810;55.848;37.368;2023-04-26T15:09:18;97943.06;;;16.27;51.68
44148;BME280;29810;55.848;37.368;2023-04-26T15:12:19;97951.47;;;15.98;51.76
44148;BME280;29810;55.848;37.368;2023-04-26T15:15:20;97961.19;;;15.97;52.53
44148;BME280;29810;55.848;37.368;2023-04-26T15:18:22;97955.56;;;15.91;51.35
44148;BME280;29810;55.848;37.368;2023-04-26T15:21:24;97962.12;;;15.85;51.68
44148;BME280;29810;55.848;37.368;2023-04-26T15:24:25;97966.44;;;15.86;52.82
44148;BME280;29810;55.848;37.368;2023-04-26T15:27:26;97961.31;;;15.84;52.84
44148;BME280;29810;55.848;37.368;2023-04-26T15:30:28;97978.03;;;15.83;53.37
44148;BME280;29810;55.848;37.368;2023-04-26T15:33:30;97970.34;;;15.80;53.72
44148;BME280;29810;55.848;37.368;2023-04-26T15:36:31;97976.81;;;15.76;52.05
44148;BME280;29810;55.848;37.368;2023-04-26T15:39:32;97978.72;;;15.74;52.41
44148;BME280;29810;55.848;37.368;2023-04-26T15:42:34;97980.84;;;15.69;51.93
44148;BME280;29810;55.848;37.368;2023-04-26T15:45:35;97983.22;;;15.72;51.16
44148;BME280;29810;55.848;37.368;2023-04-26T15:48:36;97985.56;;;15.88;51.89
44148;BME280;29810;55.848;37.368;2023-04-26T15:51:38;97980.41;;;15.86;49.97
44148;BME280;29810;55.848;37.368;2023-04-26T15:54:39;97988.66;;;15.93;50.97